createdAt,value
2023-05-22T00:02:12.859Z,39.85
2023-05-22T00:04:41.745Z,40.83
2023-05-22T00:07:10.105Z,40.67
2023-05-22T00:09:38.421Z,41.75
2023-05-22T00:12:07.585Z,41.42
2023-05-22T00:14:37.255Z,41.38
2023-05-22T00:17:05.932Z,40.76
2023-05-22T00:19:35.194Z,41.76
2023-05-22T00:22:05.408Z,40.41
2023-05-22T00:24:33.679Z,40.72
2023-05-22T00:27:01.977Z,40.28
2023-05-22T00:29:30.424Z,40.11
2023-05-22T00:32:00.053Z,40.34
2023-05-22T00:34:28.331Z,42.12
2023-05-22T00:36:56.650Z,41.30
2023-05-22T00:39:24.939Z,42.66
2023-05-22T00:41:53.684Z,42.80
2023-05-22T00:44:23.090Z,41.02
2023-05-22T00:46:52.050Z,40.82
2023-05-22T00:49:21.762Z,39.88
2023-05-22T00:51:50.520Z,39.69
2023-05-22T00:54:18.864Z,41.11
2023-05-22T00:56:47.424Z,40.75
2023-05-22T00:59:15.811Z,41.71
2023-05-22T01:01:45.224Z,41.30
2023-05-22T01:04:15.519Z,39.75
2023-05-22T01:06:47.711Z,39.18
2023-05-22T01:09:16.356Z,38.93
2023-05-22T01:11:51.500Z,39.12
2023-05-22T01:14:28.174Z,38.96
2023-05-22T01:17:08.805Z,38.18
2023-05-22T01:19:42.285Z,38.03
2023-05-22T01:22:21.672Z,38.02
2023-05-22T01:25:12.932Z,39.19
2023-05-22T01:28:04.285Z,39.14
2023-05-22T01:30:49.339Z,39.27
2023-05-22T01:33:18.227Z,41.01
2023-05-22T01:35:49.158Z,39.54
2023-05-22T01:38:18.125Z,39.26
2023-05-22T01:40:47.220Z,39.33
2023-05-22T01:43:16.404Z,39.45
2023-05-22T01:45:46.069Z,38.93
2023-05-22T01:48:14.377Z,38.34
2023-05-22T01:50:42.699Z,40.54
2023-05-22T01:53:14.244Z,40.16
2023-05-22T01:55:47.523Z,40.08
2023-05-22T01:58:22.555Z,39.66
2023-05-22T02:00:54.903Z,39.53
2023-05-22T02:03:28.705Z,39.46
2023-05-22T02:06:00.698Z,39.63
2023-05-22T02:08:29.164Z,39.34
2023-05-22T02:10:57.937Z,38.85
2023-05-22T02:13:26.379Z,39.24
2023-05-22T02:15:56.669Z,39.39
2023-05-22T02:18:29.466Z,40.03
2023-05-22T02:20:58.024Z,39.83
2023-05-22T02:23:26.637Z,39.91
2023-05-22T02:25:55.510Z,39.83
2023-05-22T02:28:23.802Z,40.45
2023-05-22T02:30:52.254Z,41.96
2023-05-22T02:33:22.120Z,40.50
2023-05-22T02:35:50.503Z,40.66
2023-05-22T02:38:18.780Z,40.68
2023-05-22T02:40:47.156Z,40.42
2023-05-22T02:43:15.448Z,40.57
2023-05-22T02:45:43.751Z,40.12
2023-05-22T02:48:13.286Z,40.07
2023-05-22T02:50:44.243Z,39.62
2023-05-22T02:53:14.403Z,40.46
2023-05-22T02:55:42.735Z,40.73
2023-05-22T02:58:13.301Z,40.28
2023-05-22T03:00:41.555Z,40.23
2023-05-22T03:03:10.018Z,40.19
2023-05-22T03:05:38.517Z,39.96
2023-05-22T03:08:08.302Z,40.34
2023-05-22T03:10:36.925Z,40.03
2023-05-22T03:13:05.433Z,40.12
2023-05-22T03:15:33.732Z,40.47
2023-05-22T03:18:02.375Z,41.54
2023-05-22T03:20:31.448Z,40.84
2023-05-22T03:22:59.738Z,43.55
2023-05-22T03:25:29.346Z,44.63
2023-05-22T03:27:57.701Z,44.99
2023-05-22T03:30:26.145Z,43.36
2023-05-22T03:32:54.581Z,43.27
2023-05-22T03:35:22.900Z,42.60
2023-05-22T03:37:51.255Z,42.38
2023-05-22T03:40:19.600Z,41.95
2023-05-22T03:42:50.028Z,41.06
2023-05-22T03:45:18.414Z,40.92
2023-05-22T03:47:46.726Z,40.64
2023-05-22T03:50:15.028Z,40.66
2023-05-22T03:52:43.317Z,40.54
2023-05-22T03:55:12.096Z,40.50
2023-05-22T03:57:40.762Z,39.97
2023-05-22T04:00:12.622Z,39.75
2023-05-22T04:02:45.317Z,40.27
2023-05-22T04:05:13.896Z,40.58
2023-05-22T04:07:42.184Z,39.47
2023-05-22T04:10:11.191Z,39.56
2023-05-22T04:12:39.453Z,39.65
2023-05-22T04:15:10.372Z,39.08
2023-05-22T04:17:40.884Z,37.71
2023-05-22T04:20:11.268Z,37.90
2023-05-22T04:22:39.893Z,38.16
2023-05-22T04:25:08.707Z,37.08
2023-05-22T04:27:38.162Z,37.78
2023-05-22T04:30:08.877Z,40.33
2023-05-22T04:32:38.614Z,40.01
2023-05-22T04:35:07.418Z,37.95
2023-05-22T04:37:35.912Z,41.23
2023-05-22T04:40:07.440Z,40.46
2023-05-22T04:42:35.972Z,40.25
2023-05-22T04:45:04.445Z,36.74
2023-05-22T04:47:32.958Z,35.15
2023-05-22T04:50:03.930Z,33.78
2023-05-22T04:52:32.238Z,33.88
2023-05-22T04:55:01.123Z,33.68
2023-05-22T04:57:30.149Z,35.07
2023-05-22T04:59:58.731Z,33.65
2023-05-22T05:02:27.016Z,32.85
2023-05-22T05:04:55.347Z,33.43
2023-05-22T05:07:25.284Z,33.75
2023-05-22T05:09:53.611Z,34.13
2023-05-22T05:12:21.904Z,32.20
2023-05-22T05:14:50.216Z,32.76
2023-05-22T05:17:18.455Z,31.90
2023-05-22T05:19:46.715Z,31.32
2023-05-22T05:22:15.001Z,31.90
2023-05-22T05:24:44.578Z,31.74
2023-05-22T05:27:12.907Z,32.76
2023-05-22T05:29:41.250Z,33.01
2023-05-22T05:32:09.924Z,33.28
2023-05-22T05:34:38.263Z,32.52
2023-05-22T05:37:06.927Z,32.63
2023-05-22T05:39:35.182Z,31.79
2023-05-22T05:42:04.997Z,32.98
2023-05-22T05:44:33.318Z,32.97
2023-05-22T05:47:02.133Z,31.95
2023-05-22T05:49:30.389Z,34.20
2023-05-22T05:51:58.695Z,32.86
2023-05-22T05:54:27.320Z,33.45
2023-05-22T05:56:55.739Z,32.73
2023-05-22T05:59:25.540Z,33.52
2023-05-22T06:01:54.020Z,33.23
2023-05-22T06:04:22.511Z,34.29
2023-05-22T06:06:51.830Z,35.41
2023-05-22T06:09:20.570Z,37.08
2023-05-22T06:11:48.855Z,37.58
2023-05-22T06:14:17.120Z,37.49
2023-05-22T06:16:46.939Z,38.60
2023-05-22T06:19:16.203Z,38.32
2023-05-22T06:21:44.621Z,37.22
2023-05-22T06:24:12.947Z,37.48
2023-05-22T06:26:41.202Z,37.56
2023-05-22T06:29:09.502Z,38.45
2023-05-22T06:31:38.525Z,37.27
2023-05-22T06:34:08.334Z,37.43
2023-05-22T06:36:37.505Z,38.86
2023-05-22T06:39:05.828Z,38.51
2023-05-22T06:41:35.604Z,38.30
2023-05-22T06:44:05.473Z,38.06
2023-05-22T06:46:33.809Z,41.83
2023-05-22T06:49:02.173Z,42.29
2023-05-22T06:51:32.743Z,43.83
2023-05-22T06:54:01.095Z,43.51
2023-05-22T06:56:29.379Z,42.52
2023-05-22T06:58:58.676Z,43.07
2023-05-22T07:01:29.237Z,44.72
2023-05-22T07:03:58.871Z,44.10
2023-05-22T07:06:27.505Z,44.53
2023-05-22T07:08:57.640Z,44.38
2023-05-22T07:11:25.936Z,43.39
2023-05-22T07:13:54.181Z,41.84
2023-05-22T07:16:23.430Z,41.45
2023-05-22T07:18:52.253Z,42.28
2023-05-22T07:21:23.742Z,39.10
2023-05-22T07:23:52.291Z,41.47
2023-05-22T07:26:22.647Z,42.70
2023-05-22T07:28:50.857Z,44.98
2023-05-22T07:31:19.105Z,40.21
2023-05-22T07:33:47.461Z,39.21
2023-05-22T07:36:16.797Z,38.59
2023-05-22T07:38:45.062Z,39.95
2023-05-22T07:41:13.332Z,38.11
2023-05-22T07:43:42.963Z,38.95
2023-05-22T07:46:11.984Z,41.45
2023-05-22T07:48:40.296Z,39.78
2023-05-22T07:51:08.918Z,40.13
2023-05-22T07:53:37.282Z,39.65
2023-05-22T07:56:05.733Z,37.39
2023-05-22T07:58:34.709Z,39.11
2023-05-22T08:01:06.307Z,39.91
2023-05-22T08:03:36.646Z,39.73
2023-05-22T08:06:05.588Z,37.00
2023-05-22T08:08:34.683Z,40.32
2023-05-22T08:11:04.401Z,37.93
2023-05-22T08:13:33.337Z,39.71
2023-05-22T08:16:01.836Z,40.73
2023-05-22T08:18:31.588Z,38.16
2023-05-22T08:21:00.827Z,37.79
2023-05-22T08:23:29.952Z,38.23
2023-05-22T08:25:58.956Z,38.95
2023-05-22T08:28:27.370Z,37.26
2023-05-22T08:30:55.965Z,36.17
2023-05-22T08:33:24.457Z,39.60
2023-05-22T08:35:54.208Z,38.04
2023-05-22T08:38:22.567Z,39.78
2023-05-22T08:40:51.690Z,35.69
2023-05-22T08:43:21.241Z,37.88
2023-05-22T08:45:55.995Z,39.85
2023-05-22T08:48:24.641Z,35.13
2023-05-22T08:50:57.555Z,40.75
2023-05-22T08:53:26.643Z,36.69
2023-05-22T08:55:55.379Z,36.60
2023-05-22T08:58:23.764Z,36.46
2023-05-22T09:00:52.746Z,39.45
2023-05-22T09:03:21.881Z,35.44
2023-05-22T09:05:50.670Z,35.14
2023-05-22T09:08:21.365Z,34.80
2023-05-22T09:10:49.979Z,33.68
2023-05-22T09:13:28.291Z,34.71
2023-05-22T09:16:00.067Z,33.30
2023-05-22T09:18:28.941Z,32.81
2023-05-22T09:20:59.020Z,33.59
2023-05-22T09:23:29.905Z,32.31
2023-05-22T09:25:59.485Z,32.30
2023-05-22T09:28:28.992Z,35.00
2023-05-22T09:30:57.379Z,35.16
2023-05-22T09:33:25.862Z,36.61
2023-05-22T09:35:54.529Z,35.30
2023-05-22T09:38:24.417Z,36.84
2023-05-22T09:40:55.674Z,37.01
2023-05-22T09:43:25.749Z,36.12
2023-05-22T09:46:04.261Z,32.21
2023-05-22T09:48:35.267Z,34.46
2023-05-22T09:51:04.465Z,35.59
2023-05-22T09:53:34.168Z,32.86
2023-05-22T09:56:07.390Z,33.98
2023-05-22T09:58:36.809Z,35.59
2023-05-22T10:01:05.250Z,30.83
2023-05-22T10:03:35.378Z,33.93
2023-05-22T10:06:04.100Z,32.66
2023-05-22T10:08:38.336Z,32.25
2023-05-22T10:11:08.366Z,32.60
2023-05-22T10:13:36.767Z,34.65
2023-05-22T10:16:07.599Z,34.46
2023-05-22T10:18:37.121Z,31.28
2023-05-22T10:21:05.857Z,30.00
2023-05-22T10:23:34.305Z,32.43
2023-05-22T10:26:03.105Z,34.57
2023-05-22T10:28:39.095Z,31.23
2023-05-22T10:31:14.213Z,31.97
2023-05-22T10:33:46.148Z,30.30
2023-05-22T10:36:20.116Z,30.05
2023-05-22T10:38:58.206Z,30.81
2023-05-22T10:41:27.322Z,31.24
2023-05-22T10:43:57.841Z,32.31
2023-05-22T10:46:26.255Z,32.74
2023-05-22T10:48:56.392Z,33.81
2023-05-22T10:51:24.668Z,31.32
2023-05-22T10:53:54.334Z,29.98
2023-05-22T10:56:25.241Z,32.82
2023-05-22T10:58:59.184Z,32.70
2023-05-22T11:01:27.817Z,34.81
2023-05-22T11:03:57.987Z,34.01
2023-05-22T11:06:34.068Z,30.22
2023-05-22T11:09:21.808Z,29.77
2023-05-22T11:12:13.934Z,30.41
2023-05-22T11:14:43.612Z,30.04
2023-05-22T11:17:13.642Z,29.71
2023-05-22T11:19:42.322Z,28.41
2023-05-22T11:22:10.644Z,33.03
2023-05-22T11:24:39.019Z,28.52
2023-05-22T11:27:08.340Z,31.38
2023-05-22T11:29:38.403Z,27.46
2023-05-22T11:32:09.799Z,28.38
2023-05-22T11:34:40.733Z,30.16
2023-05-22T11:37:09.756Z,27.60
2023-05-22T11:39:38.087Z,28.13
2023-05-22T11:42:06.986Z,28.79
2023-05-22T11:44:35.248Z,28.32
2023-05-22T11:47:04.246Z,29.45
2023-05-22T11:49:33.949Z,29.63
2023-05-22T11:52:02.225Z,27.89
2023-05-22T11:54:33.099Z,27.91
2023-05-22T11:57:01.373Z,29.96
2023-05-22T11:59:29.668Z,30.56
2023-05-22T12:01:58.110Z,28.86
2023-05-22T12:04:26.597Z,28.77
2023-05-22T12:06:56.729Z,29.45
2023-05-22T12:09:25.128Z,28.39
2023-05-22T12:11:56.247Z,31.67
2023-05-22T12:14:27.549Z,31.40
2023-05-22T12:16:56.350Z,28.66
2023-05-22T12:19:26.665Z,28.62
2023-05-22T12:21:56.426Z,27.96
2023-05-22T12:24:24.737Z,28.00
2023-05-22T12:26:53.312Z,27.23
2023-05-22T12:29:23.969Z,27.64
2023-05-22T12:31:52.542Z,27.52
2023-05-22T12:34:20.857Z,26.99
2023-05-22T12:36:49.285Z,26.08
2023-05-22T12:39:20.056Z,26.06
2023-05-22T12:41:48.463Z,27.04
2023-05-22T12:44:17.109Z,24.95
2023-05-22T12:46:45.475Z,26.20
2023-05-22T12:49:13.805Z,26.51
2023-05-22T12:51:42.126Z,27.21
2023-05-22T12:54:10.457Z,26.23
2023-05-22T12:56:40.147Z,25.66
2023-05-22T12:59:08.782Z,25.13
2023-05-22T13:01:37.106Z,27.25
2023-05-22T13:04:05.406Z,26.83
2023-05-22T13:06:33.749Z,26.14
2023-05-22T13:09:02.004Z,25.13
2023-05-22T13:11:30.327Z,25.45
2023-05-22T13:14:00.035Z,25.01
2023-05-22T13:16:28.503Z,26.90
2023-05-22T13:18:56.921Z,27.74
2023-05-22T13:21:26.419Z,26.20
2023-05-22T13:23:55.050Z,24.09
2023-05-22T13:26:23.373Z,28.11
2023-05-22T13:28:51.741Z,26.00
2023-05-22T13:31:21.395Z,24.89
2023-05-22T13:33:49.704Z,26.99
2023-05-22T13:36:19.154Z,25.23
2023-05-22T13:38:47.473Z,25.80
2023-05-22T13:41:17.701Z,27.61
2023-05-22T13:43:46.029Z,24.49
2023-05-22T13:46:14.309Z,25.32
2023-05-22T13:48:44.028Z,24.30
2023-05-22T13:51:12.373Z,26.45
2023-05-22T13:53:40.707Z,27.26
2023-05-22T13:56:09.008Z,26.69
2023-05-22T13:58:37.421Z,26.28
2023-05-22T14:01:05.957Z,26.28
2023-05-22T14:03:34.604Z,26.44
2023-05-22T14:06:04.329Z,26.23
2023-05-22T14:08:32.575Z,24.66
2023-05-22T14:11:01.067Z,24.92
2023-05-22T14:13:29.347Z,24.98
2023-05-22T14:15:57.614Z,25.55
2023-05-22T14:18:25.970Z,25.79
2023-05-22T14:20:54.267Z,24.93
2023-05-22T14:23:23.974Z,23.88
2023-05-22T14:25:52.336Z,24.30
2023-05-22T14:28:20.616Z,23.85
2023-05-22T14:30:49.039Z,24.28
2023-05-22T14:33:17.417Z,25.97
2023-05-22T14:35:45.998Z,26.50
2023-05-22T14:38:14.291Z,25.93
2023-05-22T14:40:44.047Z,25.58
2023-05-22T14:43:12.361Z,26.00
2023-05-22T14:45:41.045Z,25.21
2023-05-22T14:48:11.455Z,24.15
2023-05-22T14:50:39.817Z,23.70
2023-05-22T14:53:08.187Z,25.01
2023-05-22T14:55:36.759Z,26.17
2023-05-22T14:58:06.444Z,24.47
2023-05-22T15:00:34.982Z,26.42
2023-05-22T15:03:03.571Z,24.16
2023-05-22T15:05:31.901Z,22.53
2023-05-22T15:08:00.294Z,22.73
2023-05-22T15:10:29.001Z,24.40
2023-05-22T15:12:57.613Z,23.44
2023-05-22T15:15:27.530Z,22.44
2023-05-22T15:17:56.332Z,23.83
2023-05-22T15:20:24.714Z,22.35
2023-05-22T15:22:53.133Z,21.44
2023-05-22T15:25:21.452Z,21.37
2023-05-22T15:27:49.776Z,24.05
2023-05-22T15:30:19.137Z,22.61
2023-05-22T15:32:50.579Z,22.90
2023-05-22T15:35:18.915Z,21.38
2023-05-22T15:37:47.185Z,22.12
2023-05-22T15:40:18.334Z,23.74
2023-05-22T15:42:46.618Z,25.53
2023-05-22T15:45:14.916Z,26.57
2023-05-22T15:47:43.397Z,24.46
2023-05-22T15:50:13.195Z,24.48
2023-05-22T15:52:41.561Z,22.57
2023-05-22T15:55:10.123Z,22.88
2023-05-22T15:57:39.258Z,22.54
2023-05-22T16:00:08.899Z,23.92
2023-05-22T16:02:37.252Z,23.05
2023-05-22T16:05:06.446Z,22.55
2023-05-22T16:07:36.161Z,23.30
2023-05-22T16:10:05.111Z,22.83
2023-05-22T16:12:33.405Z,23.23
2023-05-22T16:15:03.292Z,23.06
2023-05-22T16:17:33.027Z,24.25
2023-05-22T16:20:01.468Z,23.47
2023-05-22T16:25:19.442Z,23.90
2023-05-22T16:27:47.559Z,23.27
2023-05-22T16:30:17.281Z,24.20
2023-05-22T16:32:46.589Z,23.55
2023-05-22T16:35:15.336Z,22.76
2023-05-22T16:37:43.592Z,23.42
2023-05-22T16:40:12.441Z,24.05
2023-05-22T16:42:42.139Z,23.36
2023-05-22T16:45:10.800Z,24.88
2023-05-22T16:47:39.217Z,22.69
2023-05-22T16:50:09.191Z,25.21
2023-05-22T16:52:37.700Z,23.99
2023-05-22T16:55:06.790Z,24.55
2023-05-22T16:57:35.132Z,24.26
2023-05-22T17:00:06.962Z,23.86
2023-05-22T17:02:35.513Z,24.93
2023-05-22T17:05:03.951Z,24.97
2023-05-22T17:07:32.650Z,24.07
2023-05-22T17:10:01.184Z,23.38
2023-05-22T17:12:29.548Z,24.81
2023-05-22T17:14:57.872Z,24.85
2023-05-22T17:17:27.632Z,23.06
2023-05-22T17:19:55.770Z,23.35
2023-05-22T17:22:23.873Z,22.81
2023-05-22T17:24:51.874Z,23.00
2023-05-22T17:27:31.995Z,23.49
2023-05-22T17:30:03.394Z,22.68
2023-05-22T17:32:32.976Z,24.13
2023-05-22T17:35:01.724Z,24.38
2023-05-22T17:37:29.712Z,24.72
2023-05-22T17:39:57.750Z,24.56
2023-05-22T17:42:25.971Z,25.33
2023-05-22T17:44:53.930Z,24.64
2023-05-22T17:47:22.010Z,24.52
2023-05-22T17:49:51.476Z,24.15
2023-05-22T17:52:19.482Z,24.23
2023-05-22T17:54:49.871Z,25.30
2023-05-22T17:57:17.872Z,25.97
2023-05-22T17:59:45.940Z,25.84
2023-05-22T18:02:13.946Z,25.53
2023-05-22T18:04:41.962Z,26.26
2023-05-22T18:07:11.298Z,26.53
2023-05-22T18:09:39.300Z,26.18
2023-05-22T18:12:10.893Z,26.80
2023-05-22T18:14:40.921Z,26.52
2023-05-22T18:17:08.908Z,26.75
2023-05-22T18:19:36.868Z,26.57
2023-05-22T18:22:04.973Z,26.38
2023-05-22T18:24:36.531Z,26.50
2023-05-22T18:27:04.691Z,27.34
2023-05-22T18:29:32.661Z,28.94
2023-05-22T18:32:00.871Z,28.49
2023-05-22T18:34:29.801Z,29.40
2023-05-22T18:36:59.627Z,29.18
2023-05-22T18:39:27.631Z,29.29
2023-05-22T18:41:58.424Z,29.60
2023-05-22T18:44:26.412Z,29.78
2023-05-22T18:46:54.568Z,29.38
2023-05-22T18:49:22.591Z,30.62
2023-05-22T18:51:50.946Z,31.08
2023-05-22T18:54:19.035Z,31.24
2023-05-22T18:56:47.086Z,31.45
2023-05-22T18:59:16.548Z,33.31
2023-05-22T19:01:45.764Z,33.21
2023-05-22T19:04:13.821Z,32.88
2023-05-22T19:06:42.254Z,34.09
2023-05-22T19:09:10.866Z,33.21
2023-05-22T19:11:38.959Z,32.53
2023-05-22T19:14:06.949Z,33.37
2023-05-22T19:16:36.375Z,32.81
2023-05-22T19:19:04.420Z,32.67
2023-05-22T19:21:32.651Z,32.87
2023-05-22T19:24:00.819Z,32.88
2023-05-22T19:26:28.915Z,32.97
2023-05-22T19:28:59.333Z,33.02
2023-05-22T19:31:27.668Z,33.28
2023-05-22T19:33:57.181Z,33.03
2023-05-22T19:36:25.288Z,33.54
2023-05-22T19:38:53.770Z,34.28
2023-05-22T19:41:23.142Z,35.12
2023-05-22T19:43:51.906Z,36.90
2023-05-22T19:46:19.979Z,37.50
2023-05-22T19:48:48.135Z,37.18
2023-05-22T19:51:17.540Z,36.84
2023-05-22T19:53:45.633Z,36.27
2023-05-22T19:56:13.724Z,37.03
2023-05-22T19:58:41.932Z,37.00
2023-05-22T20:01:10.274Z,37.63
2023-05-22T20:03:40.106Z,38.90
2023-05-22T20:06:08.327Z,40.02
2023-05-22T20:08:37.731Z,38.36
2023-05-22T20:11:05.845Z,39.66
2023-05-22T20:13:33.963Z,37.22
2023-05-22T20:16:04.120Z,38.02
2023-05-22T20:18:32.504Z,38.19
2023-05-22T20:21:00.524Z,37.15
2023-05-22T20:23:28.542Z,35.46
2023-05-22T20:25:57.944Z,35.06
2023-05-22T20:28:26.307Z,35.27
2023-05-22T20:30:54.409Z,35.13
2023-05-22T20:33:22.628Z,34.86
2023-05-22T20:35:53.264Z,35.92
2023-05-22T20:38:22.450Z,37.54
2023-05-22T20:40:52.045Z,37.11
2023-05-22T20:43:21.615Z,37.55
2023-05-22T20:45:50.450Z,36.41
2023-05-22T20:48:18.480Z,36.36
2023-05-22T20:50:47.616Z,38.51
2023-05-22T20:53:15.656Z,36.99
2023-05-22T20:55:43.682Z,35.98
2023-05-22T20:58:11.688Z,36.25
2023-05-22T21:00:42.076Z,35.99
2023-05-22T21:03:10.413Z,36.19
2023-05-22T21:05:38.656Z,36.62
2023-05-22T21:08:06.875Z,36.45
2023-05-22T21:10:34.904Z,36.34
2023-05-22T21:13:03.127Z,37.10
2023-05-22T21:15:31.136Z,35.94
2023-05-22T21:18:00.523Z,35.41
2023-05-22T21:20:28.619Z,35.67
2023-05-22T21:22:56.612Z,36.36
2023-05-22T21:25:24.667Z,37.56
2023-05-22T21:27:54.519Z,38.65
2023-05-22T21:30:22.798Z,38.80
2023-05-22T21:32:50.805Z,42.41
2023-05-22T21:35:20.212Z,42.05
2023-05-22T21:37:48.174Z,41.56
2023-05-22T21:40:16.233Z,44.22
2023-05-22T21:42:46.546Z,45.03
2023-05-22T21:45:15.289Z,46.10
2023-05-22T21:47:43.379Z,45.72
2023-05-22T21:50:11.801Z,46.31
2023-05-22T21:52:41.174Z,49.26
2023-05-22T21:55:09.387Z,49.89
2023-05-22T21:57:37.458Z,46.44
2023-05-22T22:00:05.741Z,45.90
2023-05-22T22:02:33.765Z,47.41
2023-05-22T22:05:01.761Z,46.25
2023-05-22T22:07:29.737Z,47.21
2023-05-22T22:09:59.081Z,43.98
2023-05-22T22:12:27.162Z,45.40
2023-05-22T22:14:55.218Z,44.13
2023-05-22T22:17:24.049Z,45.45
2023-05-22T22:19:53.598Z,44.24
2023-05-22T22:22:22.762Z,42.39
2023-05-22T22:24:50.844Z,40.69
2023-05-22T22:27:20.830Z,39.53
2023-05-22T22:29:48.861Z,39.41
2023-05-22T22:32:16.932Z,39.00
2023-05-22T22:34:45.323Z,38.60
2023-05-22T22:37:13.977Z,38.96
2023-05-22T22:39:41.961Z,38.89
2023-05-22T22:42:09.960Z,38.76
2023-05-22T22:44:39.357Z,39.55
2023-05-22T22:47:07.935Z,40.46
2023-05-22T22:49:37.225Z,40.01
2023-05-22T22:52:05.430Z,42.29
2023-05-22T22:54:33.720Z,42.93
2023-05-22T22:57:01.966Z,41.77
2023-05-22T22:59:29.987Z,40.35
2023-05-22T23:01:59.866Z,41.32
2023-05-22T23:04:28.143Z,39.39
2023-05-22T23:06:57.589Z,39.20
2023-05-22T23:09:25.601Z,38.47
2023-05-22T23:11:53.573Z,38.80
2023-05-22T23:14:21.559Z,41.81
2023-05-22T23:16:49.543Z,42.65
2023-05-22T23:19:18.965Z,39.92
2023-05-22T23:21:47.026Z,40.11
2023-05-22T23:24:15.089Z,39.94
2023-05-22T23:26:43.056Z,41.19
2023-05-22T23:29:11.090Z,42.70
2023-05-22T23:31:40.435Z,44.10
2023-05-22T23:34:08.623Z,44.88
2023-05-22T23:36:37.965Z,44.53
2023-05-22T23:39:05.960Z,45.07
2023-05-22T23:41:33.990Z,42.74
2023-05-22T23:44:02.095Z,43.94
2023-05-22T23:46:30.135Z,45.31
2023-05-22T23:48:58.193Z,50.70
2023-05-22T23:51:26.180Z,49.73
2023-05-22T23:53:55.615Z,47.32
2023-05-22T23:56:23.574Z,46.33
2023-05-22T23:58:51.630Z,46.96
